createdAt,value
2022-08-22T00:01:50.863Z,15.16
2022-08-22T00:02:44.826Z,18.79
2022-08-22T00:04:34.586Z,15.18
2022-08-22T00:07:08.324Z,15.10
2022-08-22T00:09:40.615Z,15.19
2022-08-22T00:12:31.191Z,15.47
2022-08-22T00:15:16.400Z,15.35
2022-08-22T00:18:11.254Z,15.25
2022-08-22T00:20:48.739Z,15.17
2022-08-22T00:23:23.767Z,15.34
2022-08-22T00:25:59.449Z,15.25
2022-08-22T00:28:35.495Z,15.33
2022-08-22T00:31:24.347Z,15.18
2022-08-22T00:34:06.224Z,15.14
2022-08-22T00:36:40.447Z,15.08
2022-08-22T00:39:15.172Z,15.10
2022-08-22T00:42:10.776Z,15.14
2022-08-22T00:45:08.381Z,15.23
2022-08-22T00:47:36.191Z,15.28
2022-08-22T00:50:21.320Z,15.20
2022-08-22T00:52:51.053Z,15.22
2022-08-22T00:55:51.381Z,15.31
2022-08-22T00:58:45.595Z,15.34
2022-08-22T01:01:16.984Z,15.37
2022-08-22T01:03:47.004Z,15.28
2022-08-22T01:06:28.100Z,15.30
2022-08-22T01:09:28.625Z,15.25
2022-08-22T01:12:22.912Z,15.43
2022-08-22T01:14:55.791Z,15.40
2022-08-22T01:17:34.367Z,15.53
2022-08-22T01:20:32.588Z,15.35
2022-08-22T01:23:11.088Z,15.36
2022-08-22T01:26:06.880Z,15.39
2022-08-22T01:28:58.451Z,15.38
2022-08-22T01:31:31.023Z,15.37
2022-08-22T01:34:13.242Z,15.43
2022-08-22T01:37:28.412Z,15.36
2022-08-22T01:40:29.627Z,15.31
2022-08-22T01:43:17.464Z,15.18
2022-08-22T01:46:02.564Z,15.16
2022-08-22T01:48:45.835Z,15.16
2022-08-22T01:51:17.384Z,15.16
2022-08-22T01:54:07.735Z,15.16
2022-08-22T01:56:45.072Z,15.10
2022-08-22T01:59:33.718Z,15.49
2022-08-22T02:02:23.773Z,15.15
2022-08-22T02:05:01.656Z,15.56
2022-08-22T02:07:46.425Z,14.98
2022-08-22T02:10:21.038Z,14.94
2022-08-22T02:13:13.187Z,15.00
2022-08-22T02:15:43.985Z,14.89
2022-08-22T02:18:40.357Z,14.95
2022-08-22T02:21:40.977Z,14.80
2022-08-22T02:24:24.976Z,14.60
2022-08-22T02:27:09.524Z,14.78
2022-08-22T02:29:42.358Z,14.56
2022-08-22T02:32:41.762Z,14.64
2022-08-22T02:35:41.043Z,14.46
2022-08-22T02:38:33.276Z,14.41
2022-08-22T02:41:05.104Z,14.53
2022-08-22T02:43:37.796Z,14.42
2022-08-22T02:46:25.456Z,14.23
2022-08-22T02:49:05.318Z,14.27
2022-08-22T02:52:06.036Z,14.23
2022-08-22T02:54:43.167Z,14.06
2022-08-22T02:57:39.717Z,14.05
2022-08-22T03:00:30.632Z,14.00
2022-08-22T03:03:06.828Z,13.83
2022-08-22T03:05:36.361Z,14.06
2022-08-22T03:08:29.244Z,13.62
2022-08-22T03:11:08.688Z,13.97
2022-08-22T03:13:49.517Z,13.89
2022-08-22T03:16:31.361Z,13.70
2022-08-22T03:19:18.483Z,13.70
2022-08-22T03:22:03.627Z,13.70
2022-08-22T03:24:51.872Z,13.74
2022-08-22T03:27:33.037Z,13.71
2022-08-22T03:30:12.605Z,13.74
2022-08-22T03:33:14.004Z,13.74
2022-08-22T03:35:46.809Z,13.74
2022-08-22T03:38:17.772Z,13.58
2022-08-22T03:40:50.152Z,13.72
2022-08-22T03:43:51.649Z,13.80
2022-08-22T03:46:21.303Z,14.00
2022-08-22T03:49:35.879Z,13.94
2022-08-22T03:52:59.728Z,13.76
2022-08-22T03:55:44.738Z,13.68
2022-08-22T03:58:41.104Z,13.73
2022-08-22T04:01:47.136Z,13.89
2022-08-22T04:04:33.043Z,13.68
2022-08-22T04:07:03.323Z,13.43
2022-08-22T04:09:35.365Z,13.66
2022-08-22T04:12:29.702Z,13.50
2022-08-22T04:15:03.086Z,13.48
2022-08-22T04:17:51.292Z,13.58
2022-08-22T04:20:39.297Z,13.57
2022-08-22T04:23:24.572Z,13.67
2022-08-22T04:25:55.727Z,13.84
2022-08-22T04:28:43.616Z,13.88
2022-08-22T04:31:17.132Z,14.04
2022-08-22T04:33:44.767Z,13.74
2022-08-22T04:36:27.877Z,13.92
2022-08-22T04:39:05.600Z,13.86
2022-08-22T04:41:53.449Z,13.63
2022-08-22T04:44:30.728Z,13.64
2022-08-22T04:47:03.695Z,13.17
2022-08-22T04:49:43.619Z,13.25
2022-08-22T04:52:19.372Z,13.28
2022-08-22T04:55:17.083Z,13.20
2022-08-22T04:58:02.274Z,13.19
2022-08-22T05:01:07.228Z,13.22
2022-08-22T05:03:44.731Z,13.13
2022-08-22T05:06:15.694Z,13.21
2022-08-22T05:08:46.140Z,13.19
2022-08-22T05:11:22.745Z,13.28
2022-08-22T05:13:55.205Z,13.36
2022-08-22T05:16:28.044Z,13.36
2022-08-22T05:19:02.781Z,13.26
2022-08-22T05:21:34.891Z,13.26
2022-08-22T05:24:11.598Z,13.42
2022-08-22T05:26:43.259Z,13.43
2022-08-22T05:29:13.476Z,13.57
2022-08-22T05:31:53.392Z,13.90
2022-08-22T05:34:24.377Z,13.94
2022-08-22T05:37:10.196Z,14.28
2022-08-22T05:39:39.829Z,14.36
2022-08-22T05:42:13.520Z,14.30
2022-08-22T05:44:40.447Z,14.47
2022-08-22T05:47:36.375Z,14.40
2022-08-22T05:50:15.226Z,13.94
2022-08-22T05:53:06.272Z,14.26
2022-08-22T05:55:43.327Z,14.45
2022-08-22T05:58:43.250Z,14.50
2022-08-22T06:01:20.601Z,14.42
2022-08-22T06:04:04.721Z,14.56
2022-08-22T06:06:46.680Z,14.69
2022-08-22T06:09:23.204Z,14.65
2022-08-22T06:12:05.985Z,15.00
2022-08-22T06:14:51.956Z,15.11
2022-08-22T06:17:47.917Z,15.28
2022-08-22T06:20:20.836Z,15.36
2022-08-22T06:22:55.012Z,15.62
2022-08-22T06:25:34.096Z,15.79
2022-08-22T06:28:09.076Z,15.90
2022-08-22T06:30:39.488Z,16.12
2022-08-22T06:33:16.186Z,16.17
2022-08-22T06:36:05.787Z,16.10
2022-08-22T06:38:51.749Z,16.46
2022-08-22T06:41:22.119Z,16.49
2022-08-22T06:43:52.706Z,16.50
2022-08-22T06:46:21.204Z,16.65
2022-08-22T06:48:49.090Z,16.79
2022-08-22T06:51:19.372Z,17.03
2022-08-22T06:53:50.956Z,16.90
2022-08-22T06:56:22.803Z,17.11
2022-08-22T06:58:54.534Z,17.06
2022-08-22T07:01:25.191Z,17.16
2022-08-22T07:03:57.893Z,17.16
2022-08-22T07:06:35.904Z,17.21
2022-08-22T07:09:05.574Z,17.31
2022-08-22T07:11:41.753Z,17.25
2022-08-22T07:14:15.661Z,17.30
2022-08-22T07:16:43.968Z,17.53
2022-08-22T07:19:24.364Z,17.48
2022-08-22T07:21:51.100Z,17.28
2022-08-22T07:24:22.583Z,17.51
2022-08-22T07:27:19.625Z,17.58
2022-08-22T07:30:10.217Z,17.78
2022-08-22T07:32:49.956Z,17.87
2022-08-22T07:35:22.496Z,18.10
2022-08-22T07:38:04.291Z,18.10
2022-08-22T07:40:59.681Z,18.29
2022-08-22T07:43:47.687Z,18.24
2022-08-22T07:46:29.587Z,18.47
2022-08-22T07:49:09.452Z,18.59
2022-08-22T07:51:51.498Z,18.64
2022-08-22T07:54:27.732Z,18.86
2022-08-22T07:57:01.544Z,18.87
2022-08-22T07:59:30.981Z,19.21
2022-08-22T08:02:00.066Z,19.05
2022-08-22T08:04:36.871Z,19.23
2022-08-22T08:07:09.050Z,19.37
2022-08-22T08:09:41.004Z,19.35
2022-08-22T08:12:11.296Z,19.39
2022-08-22T08:14:44.375Z,19.50
2022-08-22T08:17:23.675Z,19.60
2022-08-22T08:19:51.305Z,19.79
2022-08-22T08:22:26.838Z,19.75
2022-08-22T08:24:57.197Z,19.95
2022-08-22T08:28:03.760Z,19.93
2022-08-22T08:30:54.625Z,20.19
2022-08-22T08:33:26.060Z,20.41
2022-08-22T08:36:04.181Z,20.33
2022-08-22T08:38:37.572Z,20.41
2022-08-22T08:41:40.879Z,20.48
2022-08-22T08:44:19.879Z,20.31
2022-08-22T08:47:20.595Z,20.70
2022-08-22T08:50:09.880Z,20.75
2022-08-22T08:52:52.695Z,20.29
2022-08-22T08:55:45.428Z,20.79
2022-08-22T08:58:23.976Z,20.82
2022-08-22T09:01:12.865Z,20.90
2022-08-22T09:03:54.812Z,20.97
2022-08-22T09:06:42.539Z,21.06
2022-08-22T09:09:15.300Z,21.15
2022-08-22T09:12:01.449Z,21.42
2022-08-22T09:15:07.431Z,21.44
2022-08-22T09:18:02.949Z,21.64
2022-08-22T09:20:46.299Z,21.96
2022-08-22T09:23:47.484Z,21.99
2022-08-22T09:26:28.189Z,22.02
2022-08-22T09:29:10.380Z,22.20
2022-08-22T09:34:45.710Z,22.20
2022-08-22T09:37:28.998Z,22.29
2022-08-22T09:40:18.830Z,21.98
2022-08-22T09:43:08.745Z,22.42
2022-08-22T09:45:41.410Z,22.24
2022-08-22T09:48:18.532Z,22.57
2022-08-22T09:51:31.501Z,22.73
2022-08-22T09:54:05.312Z,22.64
2022-08-22T09:56:56.499Z,22.87
2022-08-22T09:59:29.333Z,22.88
2022-08-22T10:02:44.291Z,22.99
2022-08-22T10:05:40.437Z,23.04
2022-08-22T10:08:27.893Z,22.94
2022-08-22T10:11:09.794Z,22.96
2022-08-22T10:14:00.712Z,22.79
2022-08-22T10:16:46.921Z,22.79
2022-08-22T10:19:40.316Z,22.91
2022-08-22T10:22:36.236Z,23.08
2022-08-22T10:25:25.053Z,23.25
2022-08-22T10:28:10.544Z,23.37
2022-08-22T10:30:57.766Z,23.31
2022-08-22T10:33:35.223Z,23.37
2022-08-22T10:36:05.388Z,23.46
2022-08-22T10:38:43.965Z,23.71
2022-08-22T10:41:28.418Z,23.73
2022-08-22T10:44:05.161Z,23.69
2022-08-22T10:46:42.064Z,22.90
2022-08-22T10:49:20.839Z,23.46
2022-08-22T10:52:17.280Z,23.58
2022-08-22T10:54:44.089Z,23.41
2022-08-22T10:57:39.000Z,23.66
2022-08-22T11:00:22.549Z,23.50
2022-08-22T11:03:28.023Z,24.03
2022-08-22T11:06:00.411Z,23.72
2022-08-22T11:08:48.815Z,23.74
2022-08-22T11:11:32.908Z,23.86
2022-08-22T11:14:06.707Z,24.05
2022-08-22T11:16:47.027Z,24.19
2022-08-22T11:20:05.644Z,23.82
2022-08-22T11:22:55.742Z,23.87
2022-08-22T11:25:38.718Z,24.25
2022-08-22T11:28:30.523Z,24.38
2022-08-22T11:31:31.832Z,24.54
2022-08-22T11:34:21.863Z,24.16
2022-08-22T11:36:55.820Z,24.56
2022-08-22T11:39:25.473Z,24.09
2022-08-22T11:42:07.284Z,24.01
2022-08-22T11:44:50.248Z,24.30
2022-08-22T11:47:26.380Z,24.15
2022-08-22T11:49:54.483Z,23.95
2022-08-22T11:52:42.713Z,24.40
2022-08-22T11:55:38.586Z,24.34
2022-08-22T11:58:30.334Z,24.28
2022-08-22T12:01:23.396Z,24.35
2022-08-22T12:04:03.401Z,24.65
2022-08-22T12:06:52.061Z,24.69
2022-08-22T12:09:27.055Z,24.58
2022-08-22T12:12:12.618Z,24.25
2022-08-22T12:14:51.853Z,24.33
2022-08-22T12:17:50.836Z,24.21
2022-08-22T12:20:38.671Z,24.53
2022-08-22T12:23:11.186Z,24.32
2022-08-22T12:25:50.538Z,24.30
2022-08-22T12:28:38.815Z,24.23
2022-08-22T12:31:29.853Z,24.08
2022-08-22T12:34:18.336Z,24.46
2022-08-22T12:36:57.560Z,24.10
2022-08-22T12:39:36.068Z,24.47
2022-08-22T12:42:07.148Z,24.43
2022-08-22T12:44:57.067Z,24.53
2022-08-22T12:47:56.535Z,24.45
2022-08-22T12:50:47.529Z,24.80
2022-08-22T12:53:39.553Z,24.94
2022-08-22T12:56:14.584Z,24.52
2022-08-22T12:59:02.707Z,26.06
2022-08-22T13:01:39.162Z,25.77
2022-08-22T13:04:33.638Z,25.30
2022-08-22T13:07:18.501Z,25.62
2022-08-22T13:09:52.372Z,24.85
2022-08-22T13:12:55.191Z,24.93
2022-08-22T13:15:33.504Z,24.92
2022-08-22T13:18:28.695Z,25.02
2022-08-22T13:20:57.668Z,25.21
2022-08-22T13:23:47.144Z,25.00
2022-08-22T13:26:32.886Z,25.10
2022-08-22T13:32:01.446Z,25.18
2022-08-22T13:34:45.859Z,25.29
2022-08-22T13:37:17.880Z,25.40
2022-08-22T13:39:54.946Z,25.26
2022-08-22T13:42:30.451Z,25.27
2022-08-22T13:45:02.568Z,24.97
2022-08-22T13:47:32.410Z,25.42
2022-08-22T13:50:18.967Z,25.25
2022-08-22T13:53:31.867Z,25.22
2022-08-22T13:56:15.526Z,25.32
2022-08-22T13:58:47.536Z,25.09
2022-08-22T14:01:18.625Z,25.07
2022-08-22T14:04:00.021Z,25.20
2022-08-22T14:06:38.009Z,25.01
2022-08-22T14:09:34.087Z,25.27
2022-08-22T14:12:26.824Z,30.34
2022-08-22T14:14:59.481Z,31.51
2022-08-22T14:17:42.683Z,30.04
2022-08-22T14:20:32.319Z,30.31
2022-08-22T14:23:04.025Z,30.93
2022-08-22T14:25:34.523Z,30.76
2022-08-22T14:28:09.425Z,29.88
2022-08-22T14:30:54.361Z,31.16
2022-08-22T14:33:32.599Z,31.71
2022-08-22T14:36:10.254Z,31.51
2022-08-22T14:38:46.286Z,31.94
2022-08-22T14:41:52.356Z,32.69
2022-08-22T14:44:33.064Z,30.93
2022-08-22T14:47:04.307Z,31.52
2022-08-22T14:49:57.085Z,31.35
2022-08-22T14:52:31.595Z,30.11
2022-08-22T14:55:08.693Z,29.70
2022-08-22T14:57:41.461Z,30.31
2022-08-22T15:00:13.491Z,30.29
2022-08-22T15:02:42.331Z,30.11
2022-08-22T15:05:21.323Z,31.79
2022-08-22T15:07:59.149Z,29.49
2022-08-22T15:10:34.126Z,30.59
2022-08-22T15:13:07.736Z,32.26
2022-08-22T15:15:53.274Z,31.18
2022-08-22T15:18:23.159Z,33.24
2022-08-22T15:21:11.324Z,31.12
2022-08-22T15:23:44.730Z,30.47
2022-08-22T15:26:23.008Z,32.33
2022-08-22T15:28:57.667Z,31.60
2022-08-22T15:31:24.934Z,29.72
2022-08-22T15:33:52.946Z,30.35
2022-08-22T15:36:26.169Z,30.54
2022-08-22T15:38:56.448Z,31.12
2022-08-22T15:41:36.396Z,29.55
2022-08-22T15:44:03.607Z,29.52
2022-08-22T15:46:43.714Z,30.67
2022-08-22T15:49:19.448Z,30.61
2022-08-22T15:51:55.017Z,31.60
2022-08-22T15:54:26.006Z,30.66
2022-08-22T15:56:55.938Z,31.20
2022-08-22T15:59:29.745Z,31.30
2022-08-22T16:02:00.548Z,30.49
2022-08-22T16:04:49.671Z,31.14
2022-08-22T16:07:33.021Z,30.37
2022-08-22T16:10:04.835Z,30.85
2022-08-22T16:12:43.841Z,29.84
2022-08-22T16:15:51.479Z,29.59
2022-08-22T16:18:33.304Z,29.54
2022-08-22T16:21:11.041Z,29.91
2022-08-22T16:23:46.715Z,29.18
2022-08-22T16:26:31.297Z,29.81
2022-08-22T16:29:03.920Z,28.90
2022-08-22T16:31:30.686Z,28.83
2022-08-22T16:34:18.995Z,29.21
2022-08-22T16:37:03.863Z,29.41
2022-08-22T16:39:58.603Z,29.85
2022-08-22T16:42:35.358Z,26.07
2022-08-22T16:45:29.385Z,25.70
2022-08-22T16:48:02.177Z,25.36
2022-08-22T16:50:37.713Z,25.17
2022-08-22T16:53:29.500Z,24.64
2022-08-22T16:56:22.549Z,24.37
2022-08-22T16:59:19.591Z,24.06
2022-08-22T17:02:27.945Z,23.83
2022-08-22T17:05:22.647Z,23.63
2022-08-22T17:07:55.316Z,23.68
2022-08-22T17:10:52.593Z,23.51
2022-08-22T17:13:50.971Z,23.56
2022-08-22T17:16:31.664Z,23.46
2022-08-22T17:18:58.252Z,22.56
2022-08-22T17:21:53.557Z,22.54
2022-08-22T17:24:39.043Z,22.47
2022-08-22T17:27:17.825Z,22.18
2022-08-22T17:30:01.453Z,21.67
2022-08-22T17:33:08.825Z,21.47
2022-08-22T17:35:58.535Z,21.53
2022-08-22T17:39:07.292Z,21.13
2022-08-22T17:41:54.888Z,20.44
2022-08-22T17:44:40.490Z,20.53
2022-08-22T17:47:15.059Z,20.53
2022-08-22T17:49:41.672Z,20.32
2022-08-22T17:52:14.473Z,20.27
2022-08-22T17:54:49.629Z,19.93
2022-08-22T17:57:40.356Z,19.97
2022-08-22T18:00:18.503Z,20.12
2022-08-22T18:02:56.950Z,19.88
2022-08-22T18:05:29.272Z,19.87
2022-08-22T18:08:37.307Z,19.39
2022-08-22T18:11:10.044Z,19.47
2022-08-22T18:13:49.434Z,19.05
2022-08-22T18:16:27.063Z,19.20
2022-08-22T18:19:21.383Z,19.03
2022-08-22T18:22:28.713Z,18.70
2022-08-22T18:25:05.587Z,19.00
2022-08-22T18:27:54.406Z,19.11
2022-08-22T18:30:26.861Z,18.96
2022-08-22T18:33:28.350Z,18.96
2022-08-22T18:36:41.773Z,18.89
2022-08-22T18:39:23.475Z,18.79
2022-08-22T18:42:07.160Z,18.83
2022-08-22T18:44:37.316Z,18.61
2022-08-22T18:47:21.891Z,18.65
2022-08-22T18:49:54.562Z,18.48
2022-08-22T18:52:34.201Z,18.47
2022-08-22T18:55:04.114Z,18.41
2022-08-22T18:58:01.272Z,18.28
2022-08-22T19:01:05.427Z,18.10
2022-08-22T19:03:47.887Z,18.21
2022-08-22T19:06:37.020Z,18.10
2022-08-22T19:09:03.678Z,17.99
2022-08-22T19:11:46.061Z,18.34
2022-08-22T19:14:24.213Z,18.00
2022-08-22T19:17:24.781Z,17.78
2022-08-22T19:20:41.310Z,17.93
2022-08-22T19:23:35.852Z,17.94
2022-08-22T19:26:23.724Z,17.93
2022-08-22T19:28:53.081Z,17.72
2022-08-22T19:31:46.321Z,17.79
2022-08-22T19:34:36.262Z,17.57
2022-08-22T19:37:32.188Z,17.64
2022-08-22T19:40:02.012Z,17.52
2022-08-22T19:42:34.952Z,17.31
2022-08-22T19:45:04.777Z,17.57
2022-08-22T19:47:40.889Z,17.37
2022-08-22T19:50:16.688Z,17.30
2022-08-22T19:52:57.548Z,17.39
2022-08-22T19:55:36.717Z,17.17
2022-08-22T19:58:31.882Z,17.18
2022-08-22T20:01:31.684Z,17.05
2022-08-22T20:04:09.147Z,16.95
2022-08-22T20:06:44.314Z,17.01
2022-08-22T20:09:39.087Z,16.73
2022-08-22T20:12:15.471Z,16.84
2022-08-22T20:14:45.544Z,16.64
2022-08-22T20:17:24.217Z,16.75
2022-08-22T20:20:27.944Z,16.83
2022-08-22T20:23:00.877Z,16.90
2022-08-22T20:25:43.160Z,16.60
2022-08-22T20:28:38.986Z,16.76
2022-08-22T20:31:27.088Z,16.75
2022-08-22T20:33:58.725Z,16.60
2022-08-22T20:36:27.585Z,16.87
2022-08-22T20:39:10.829Z,16.64
2022-08-22T20:41:46.468Z,16.40
2022-08-22T20:44:44.220Z,16.24
2022-08-22T20:47:19.522Z,15.79
2022-08-22T20:49:54.635Z,15.68
2022-08-22T20:52:28.367Z,15.57
2022-08-22T20:55:21.678Z,15.42
2022-08-22T20:57:51.328Z,15.54
2022-08-22T21:00:27.391Z,15.36
2022-08-22T21:02:58.804Z,15.29
2022-08-22T21:05:34.168Z,15.20
2022-08-22T21:08:05.389Z,15.24
2022-08-22T21:10:51.964Z,15.11
2022-08-22T21:13:23.825Z,15.32
2022-08-22T21:15:55.548Z,15.23
2022-08-22T21:18:28.336Z,15.19
2022-08-22T21:21:24.856Z,15.00
2022-08-22T21:24:00.575Z,15.07
2022-08-22T21:26:32.275Z,15.04
2022-08-22T21:29:32.832Z,15.26
2022-08-22T21:32:29.692Z,14.86
2022-08-22T21:34:56.605Z,15.22
2022-08-22T21:37:31.916Z,14.96
2022-08-22T21:40:01.694Z,14.81
2022-08-22T21:42:36.372Z,15.24
2022-08-22T21:45:42.441Z,14.92
2022-08-22T21:48:43.730Z,15.08
2022-08-22T21:51:28.397Z,14.96
2022-08-22T21:54:21.345Z,14.86
2022-08-22T21:56:50.979Z,14.79
2022-08-22T21:59:25.823Z,14.57
2022-08-22T22:01:55.440Z,14.37
2022-08-22T22:04:22.346Z,14.45
2022-08-22T22:06:48.992Z,14.22
2022-08-22T22:09:15.595Z,14.49
2022-08-22T22:11:42.457Z,14.22
2022-08-22T22:14:09.197Z,13.91
2022-08-22T22:16:35.937Z,14.58
2022-08-22T22:19:02.625Z,14.52
2022-08-22T22:21:29.269Z,14.32
2022-08-22T22:23:58.586Z,14.22
2022-08-22T22:26:26.631Z,14.64
2022-08-22T22:28:53.481Z,14.39
2022-08-22T22:31:20.076Z,14.58
2022-08-22T22:33:47.086Z,14.38
2022-08-22T22:36:23.632Z,14.20
2022-08-22T22:38:52.556Z,13.91
2022-08-22T22:41:21.172Z,13.95
2022-08-22T22:43:47.813Z,14.01
2022-08-22T22:46:14.484Z,13.92
2022-08-22T22:48:41.085Z,13.99
2022-08-22T22:51:10.463Z,13.77
2022-08-22T22:53:42.581Z,13.48
2022-08-22T22:56:16.918Z,13.70
2022-08-22T22:58:44.543Z,13.85
2022-08-22T23:01:16.736Z,13.91
2022-08-22T23:03:44.858Z,13.89
2022-08-22T23:06:13.548Z,13.81
2022-08-22T23:08:40.781Z,13.91
2022-08-22T23:11:14.869Z,13.78
2022-08-22T23:13:42.869Z,13.75
2022-08-22T23:16:15.968Z,13.65
2022-08-22T23:18:43.664Z,13.61
2022-08-22T23:21:26.304Z,13.50
2022-08-22T23:23:58.376Z,13.42
2022-08-22T23:26:25.496Z,13.59
2022-08-22T23:28:52.243Z,13.57
2022-08-22T23:31:28.892Z,13.51
2022-08-22T23:33:56.596Z,13.26
2022-08-22T23:36:24.064Z,13.19
2022-08-22T23:38:51.995Z,13.13
2022-08-22T23:41:21.393Z,13.31
2022-08-22T23:43:52.324Z,13.25
2022-08-22T23:46:21.160Z,13.35
2022-08-22T23:48:48.834Z,13.28
2022-08-22T23:51:23.036Z,13.20
2022-08-22T23:53:51.421Z,13.31
2022-08-22T23:56:27.304Z,13.48
2022-08-22T23:58:53.981Z,13.34
